createdAt,value
2024-04-07T00:01:47.969Z,66.05
2024-04-07T00:04:16.932Z,66.10
2024-04-07T00:06:45.831Z,66.22
2024-04-07T00:09:14.920Z,66.22
2024-04-07T00:11:43.787Z,66.33
2024-04-07T00:14:11.802Z,66.35
2024-04-07T00:16:39.979Z,66.38
2024-04-07T00:19:09.617Z,66.49
2024-04-07T00:21:37.837Z,66.56
2024-04-07T00:24:06.180Z,66.50
2024-04-07T00:26:34.227Z,66.39
2024-04-07T00:29:03.621Z,66.36
2024-04-07T00:31:31.554Z,66.35
2024-04-07T00:34:00.208Z,66.62
2024-04-07T00:36:28.899Z,66.75
2024-04-07T00:38:56.951Z,66.88
2024-04-07T00:41:25.236Z,66.92
2024-04-07T00:43:53.419Z,67.27
2024-04-07T00:46:21.766Z,67.36
2024-04-07T00:48:49.969Z,67.69
2024-04-07T00:51:20.778Z,67.76
2024-04-07T00:53:48.972Z,67.82
2024-04-07T00:56:17.470Z,67.93
2024-04-07T00:58:45.800Z,67.94
2024-04-07T01:01:13.912Z,68.14
2024-04-07T01:03:41.849Z,68.17
2024-04-07T01:06:12.445Z,68.20
2024-04-07T01:08:40.882Z,67.98
2024-04-07T01:11:09.272Z,68.11
2024-04-07T01:13:39.695Z,68.15
2024-04-07T01:16:07.973Z,68.31
2024-04-07T01:18:35.955Z,68.38
2024-04-07T01:21:04.376Z,68.30
2024-04-07T01:23:32.212Z,68.49
2024-04-07T01:26:00.529Z,68.49
2024-04-07T01:28:28.546Z,68.69
2024-04-07T01:30:56.770Z,68.82
2024-04-07T01:33:24.650Z,68.89
2024-04-07T01:35:52.624Z,68.80
2024-04-07T01:38:21.038Z,68.89
2024-04-07T01:40:50.046Z,68.94
2024-04-07T01:43:18.799Z,68.95
2024-04-07T01:45:46.888Z,68.90
2024-04-07T01:48:15.378Z,68.93
2024-04-07T01:50:43.844Z,68.96
2024-04-07T01:53:11.955Z,68.96
2024-04-07T01:55:40.144Z,69.19
2024-04-07T01:58:08.527Z,69.20
2024-04-07T02:00:36.857Z,69.25
2024-04-07T02:03:05.293Z,69.44
2024-04-07T02:05:34.207Z,69.59
2024-04-07T02:08:04.293Z,69.53
2024-04-07T02:10:33.362Z,69.60
2024-04-07T02:13:02.448Z,69.55
2024-04-07T02:15:36.674Z,69.58
2024-04-07T02:18:06.622Z,69.59
2024-04-07T02:20:35.443Z,69.72
2024-04-07T02:23:04.721Z,69.77
2024-04-07T02:25:32.608Z,69.87
2024-04-07T02:28:01.382Z,69.84
2024-04-07T02:30:29.836Z,69.82
2024-04-07T02:32:57.789Z,69.78
2024-04-07T02:35:26.624Z,69.83
2024-04-07T02:37:54.679Z,69.88
2024-04-07T02:40:22.773Z,69.84
2024-04-07T02:42:53.343Z,69.66
2024-04-07T02:45:40.422Z,69.66
2024-04-07T02:48:09.424Z,69.16
2024-04-07T02:50:37.738Z,69.21
2024-04-07T02:53:05.664Z,69.59
2024-04-07T02:55:34.547Z,69.64
2024-04-07T02:58:02.468Z,69.91
2024-04-07T03:00:31.828Z,69.89
2024-04-07T03:03:00.079Z,69.95
2024-04-07T03:05:28.877Z,70.06
2024-04-07T03:07:56.929Z,70.21
2024-04-07T03:10:25.103Z,69.95
2024-04-07T03:12:52.980Z,69.92
2024-04-07T03:15:20.944Z,69.79
2024-04-07T03:17:48.997Z,70.12
2024-04-07T03:20:17.499Z,69.98
2024-04-07T03:22:45.488Z,70.26
2024-04-07T03:25:13.482Z,70.65
2024-04-07T03:27:41.308Z,70.76
2024-04-07T03:30:09.921Z,70.79
2024-04-07T03:32:37.851Z,70.90
2024-04-07T03:35:05.712Z,70.86
2024-04-07T03:37:33.595Z,70.79
2024-04-07T03:40:01.589Z,70.70
2024-04-07T03:42:30.242Z,70.83
2024-04-07T03:44:59.371Z,70.98
2024-04-07T03:47:27.305Z,70.63
2024-04-07T03:49:55.089Z,70.36
2024-04-07T03:52:23.069Z,69.87
2024-04-07T03:54:51.333Z,69.28
2024-04-07T03:57:19.149Z,68.73
2024-04-07T03:59:46.944Z,68.33
2024-04-07T04:02:23.080Z,68.47
2024-04-07T04:05:10.867Z,69.86
2024-04-07T04:07:38.943Z,70.64
2024-04-07T04:10:08.332Z,71.00
2024-04-07T04:12:36.825Z,71.09
2024-04-07T04:15:07.055Z,71.26
2024-04-07T04:17:35.127Z,71.69
2024-04-07T04:20:04.484Z,71.83
2024-04-07T04:22:32.981Z,71.97
2024-04-07T04:25:00.771Z,71.39
2024-04-07T04:27:32.317Z,71.44
2024-04-07T04:30:00.264Z,71.82
2024-04-07T04:32:28.439Z,71.90
2024-04-07T04:34:56.413Z,71.88
2024-04-07T04:37:24.480Z,71.94
2024-04-07T04:39:52.650Z,71.98
2024-04-07T04:42:20.633Z,72.24
2024-04-07T04:44:48.536Z,72.24
2024-04-07T04:47:16.558Z,72.46
2024-04-07T04:49:45.106Z,72.55
2024-04-07T04:52:13.319Z,72.52
2024-04-07T04:54:41.382Z,72.35
2024-04-07T04:57:09.331Z,72.29
2024-04-07T04:59:37.505Z,72.43
2024-04-07T05:02:05.409Z,72.37
2024-04-07T05:04:33.508Z,71.94
2024-04-07T05:07:01.756Z,72.03
2024-04-07T05:09:29.727Z,72.18
2024-04-07T05:11:58.535Z,71.86
2024-04-07T05:14:26.730Z,71.81
2024-04-07T05:16:54.669Z,71.63
2024-04-07T05:19:22.771Z,71.44
2024-04-07T05:21:51.055Z,71.22
2024-04-07T05:24:19.464Z,71.33
2024-04-07T05:26:47.459Z,71.25
2024-04-07T05:29:15.489Z,71.02
2024-04-07T05:31:45.378Z,71.00
2024-04-07T05:34:13.349Z,71.04
2024-04-07T05:36:41.393Z,70.67
2024-04-07T05:39:09.586Z,70.54
2024-04-07T05:41:37.601Z,70.55
2024-04-07T05:44:05.607Z,70.30
2024-04-07T05:46:33.496Z,70.19
2024-04-07T05:49:01.480Z,70.00
2024-04-07T05:51:29.891Z,69.82
2024-04-07T05:53:57.997Z,69.77
2024-04-07T05:56:26.066Z,69.43
2024-04-07T05:58:54.341Z,69.33
2024-04-07T06:01:22.444Z,69.24
2024-04-07T06:03:50.436Z,68.81
2024-04-07T06:06:18.874Z,68.32
2024-04-07T06:08:47.270Z,67.81
2024-04-07T06:11:15.244Z,67.78
2024-04-07T06:13:43.283Z,67.46
2024-04-07T06:16:12.516Z,67.22
2024-04-07T06:18:40.488Z,66.79
2024-04-07T06:21:11.605Z,66.28
2024-04-07T06:23:42.450Z,65.88
2024-04-07T06:26:12.934Z,65.54
2024-04-07T06:28:42.177Z,65.52
2024-04-07T06:31:13.197Z,65.22
2024-04-07T06:33:41.997Z,64.90
2024-04-07T06:36:10.580Z,64.77
2024-04-07T06:38:39.954Z,64.54
2024-04-07T06:41:08.130Z,64.11
2024-04-07T06:43:37.122Z,64.06
2024-04-07T06:46:05.497Z,63.80
2024-04-07T06:48:33.768Z,63.53
2024-04-07T06:51:01.957Z,63.48
2024-04-07T06:53:30.325Z,63.34
2024-04-07T06:55:58.569Z,63.04
2024-04-07T06:58:27.026Z,62.56
2024-04-07T07:00:55.418Z,62.48
2024-04-07T07:03:24.231Z,62.48
2024-04-07T07:05:52.748Z,61.89
2024-04-07T07:08:20.998Z,61.46
2024-04-07T07:11:02.886Z,61.48
2024-04-07T07:13:34.108Z,60.98
2024-04-07T07:16:02.852Z,60.69
2024-04-07T07:18:31.128Z,60.73
2024-04-07T07:20:59.542Z,60.92
2024-04-07T07:23:28.845Z,60.61
2024-04-07T07:25:57.154Z,60.28
2024-04-07T07:28:25.277Z,59.77
2024-04-07T07:30:53.709Z,59.34
2024-04-07T07:33:21.970Z,58.85
2024-04-07T07:35:53.628Z,58.36
2024-04-07T07:38:23.721Z,58.13
2024-04-07T07:40:51.926Z,58.20
2024-04-07T07:43:20.788Z,57.93
2024-04-07T07:45:49.239Z,58.45
2024-04-07T07:48:17.825Z,58.38
2024-04-07T07:50:46.296Z,58.45
2024-04-07T07:53:14.598Z,58.19
2024-04-07T07:55:43.249Z,58.21
2024-04-07T07:58:11.475Z,58.60
2024-04-07T08:00:40.251Z,57.77
2024-04-07T08:03:09.816Z,57.38
2024-04-07T08:05:39.329Z,57.42
2024-04-07T08:08:08.245Z,56.87
2024-04-07T08:10:37.426Z,55.54
2024-04-07T08:13:06.376Z,54.14
2024-04-07T08:15:35.472Z,53.98
2024-04-07T08:18:04.267Z,53.34
2024-04-07T08:20:33.136Z,52.96
2024-04-07T08:23:01.498Z,52.59
2024-04-07T08:25:29.527Z,52.62
2024-04-07T08:27:57.547Z,52.35
2024-04-07T08:30:25.630Z,52.14
2024-04-07T08:32:54.889Z,51.80
2024-04-07T08:35:23.523Z,51.14
2024-04-07T08:37:52.827Z,49.89
2024-04-07T08:40:21.418Z,49.45
2024-04-07T08:42:51.487Z,49.05
2024-04-07T08:45:22.398Z,49.04
2024-04-07T08:47:51.477Z,47.97
2024-04-07T08:50:19.765Z,47.41
2024-04-07T08:52:48.359Z,47.14
2024-04-07T08:55:16.295Z,46.53
2024-04-07T08:57:45.383Z,46.34
2024-04-07T09:00:17.325Z,46.48
2024-04-07T09:02:46.597Z,46.02
2024-04-07T09:05:15.914Z,45.89
2024-04-07T09:07:44.059Z,44.60
2024-04-07T09:10:12.660Z,44.55
2024-04-07T09:12:40.721Z,44.06
2024-04-07T09:15:11.620Z,44.16
2024-04-07T09:17:39.932Z,44.26
2024-04-07T09:20:20.816Z,43.71
2024-04-07T09:22:49.087Z,43.17
2024-04-07T09:25:18.384Z,42.84
2024-04-07T09:27:46.493Z,42.11
2024-04-07T09:30:14.845Z,41.67
2024-04-07T09:32:43.854Z,40.86
2024-04-07T09:35:12.522Z,41.65
2024-04-07T09:37:41.136Z,41.40
2024-04-07T09:40:10.090Z,41.19
2024-04-07T09:42:40.007Z,38.97
2024-04-07T09:45:13.102Z,38.69
2024-04-07T09:47:45.317Z,38.93
2024-04-07T09:50:35.456Z,38.39
2024-04-07T09:53:13.631Z,37.75
2024-04-07T09:55:45.391Z,38.04
2024-04-07T09:58:15.253Z,37.63
2024-04-07T10:00:43.912Z,37.51
2024-04-07T10:03:12.195Z,37.29
2024-04-07T10:05:40.377Z,36.67
2024-04-07T10:08:10.400Z,36.40
2024-04-07T10:10:38.880Z,36.93
2024-04-07T10:13:11.272Z,37.39
2024-04-07T10:15:39.520Z,37.56
2024-04-07T10:18:21.009Z,37.71
2024-04-07T10:20:56.877Z,36.92
2024-04-07T10:23:28.049Z,36.57
2024-04-07T10:26:04.732Z,36.32
2024-04-07T10:29:08.818Z,36.68
2024-04-07T10:31:40.137Z,37.19
2024-04-07T10:34:11.666Z,36.09
2024-04-07T10:36:42.004Z,35.77
2024-04-07T10:39:17.594Z,35.34
2024-04-07T10:41:46.777Z,35.34
2024-04-07T10:44:14.672Z,34.88
2024-04-07T10:46:43.380Z,35.07
2024-04-07T10:49:11.951Z,34.99
2024-04-07T10:51:40.117Z,35.94
2024-04-07T10:54:09.074Z,36.11
2024-04-07T10:56:37.369Z,35.56
2024-04-07T10:59:08.310Z,35.78
2024-04-07T11:01:36.718Z,35.53
2024-04-07T11:04:04.738Z,36.23
2024-04-07T11:06:32.649Z,35.85
2024-04-07T11:09:04.068Z,36.08
2024-04-07T11:11:32.341Z,36.01
2024-04-07T11:14:00.848Z,36.10
2024-04-07T11:16:29.819Z,36.76
2024-04-07T11:18:58.086Z,36.79
2024-04-07T11:21:27.813Z,36.24
2024-04-07T11:23:56.704Z,35.81
2024-04-07T11:26:29.477Z,35.80
2024-04-07T11:28:59.989Z,35.48
2024-04-07T11:31:29.253Z,34.66
2024-04-07T11:33:59.231Z,34.62
2024-04-07T11:36:28.563Z,34.35
2024-04-07T11:38:56.855Z,34.35
2024-04-07T11:41:25.441Z,33.79
2024-04-07T11:43:55.830Z,33.80
2024-04-07T11:46:25.059Z,33.90
2024-04-07T11:48:53.329Z,33.36
2024-04-07T11:51:21.608Z,33.23
2024-04-07T11:53:49.980Z,32.93
2024-04-07T11:56:19.504Z,32.63
2024-04-07T11:58:47.698Z,32.34
2024-04-07T12:01:16.408Z,32.61
2024-04-07T12:03:45.257Z,32.41
2024-04-07T12:06:13.621Z,32.54
2024-04-07T12:08:42.087Z,31.86
2024-04-07T12:11:11.688Z,32.01
2024-04-07T12:13:41.529Z,32.38
2024-04-07T12:16:09.475Z,32.09
2024-04-07T12:18:37.555Z,32.27
2024-04-07T12:21:05.883Z,32.92
2024-04-07T12:23:34.162Z,33.80
2024-04-07T12:26:02.989Z,33.46
2024-04-07T12:28:31.161Z,33.25
2024-04-07T12:30:59.297Z,32.74
2024-04-07T12:33:27.364Z,33.12
2024-04-07T12:35:55.944Z,31.47
2024-04-07T12:38:24.023Z,31.30
2024-04-07T12:40:52.093Z,32.54
2024-04-07T12:43:20.158Z,33.55
2024-04-07T12:45:48.437Z,34.07
2024-04-07T12:48:20.373Z,33.04
2024-04-07T12:50:48.444Z,33.26
2024-04-07T12:53:16.338Z,34.56
2024-04-07T12:55:44.462Z,36.14
2024-04-07T12:58:13.051Z,36.16
2024-04-07T13:00:42.706Z,35.13
2024-04-07T13:03:10.683Z,34.18
2024-04-07T13:05:39.106Z,34.46
2024-04-07T13:08:07.259Z,34.15
2024-04-07T13:10:35.210Z,34.29
2024-04-07T13:13:03.300Z,34.13
2024-04-07T13:15:31.393Z,33.74
2024-04-07T13:17:59.667Z,32.87
2024-04-07T13:20:29.947Z,31.69
2024-04-07T13:22:59.659Z,30.81
2024-04-07T13:25:27.811Z,31.27
2024-04-07T13:27:58.894Z,32.06
2024-04-07T13:30:27.140Z,31.28
2024-04-07T13:32:56.203Z,31.90
2024-04-07T13:35:24.624Z,31.76
2024-04-07T13:37:53.777Z,31.67
2024-04-07T13:40:23.381Z,31.80
2024-04-07T13:42:52.341Z,31.90
2024-04-07T13:45:20.590Z,31.60
2024-04-07T13:47:49.620Z,31.37
2024-04-07T13:50:18.072Z,31.18
2024-04-07T13:52:49.988Z,30.72
2024-04-07T13:55:19.283Z,30.36
2024-04-07T13:57:48.070Z,30.43
2024-04-07T14:00:16.225Z,31.40
2024-04-07T14:02:45.037Z,31.60
2024-04-07T14:05:13.599Z,31.71
2024-04-07T14:07:43.249Z,31.64
2024-04-07T14:10:11.707Z,31.84
2024-04-07T14:12:40.034Z,31.56
2024-04-07T14:15:08.585Z,31.42
2024-04-07T14:17:37.090Z,31.49
2024-04-07T14:20:07.125Z,31.76
2024-04-07T14:22:35.886Z,32.39
2024-04-07T14:25:05.274Z,33.55
2024-04-07T14:27:34.086Z,33.81
2024-04-07T14:30:03.138Z,34.80
2024-04-07T14:32:31.653Z,33.22
2024-04-07T14:34:59.725Z,33.62
2024-04-07T14:37:28.097Z,32.75
2024-04-07T14:39:57.966Z,31.89
2024-04-07T14:42:27.219Z,31.93
2024-04-07T14:44:55.444Z,32.11
2024-04-07T14:47:24.132Z,32.05
2024-04-07T14:49:54.047Z,31.71
2024-04-07T14:52:23.026Z,31.77
2024-04-07T14:54:51.305Z,31.65
2024-04-07T14:57:19.502Z,30.97
2024-04-07T14:59:51.126Z,31.47
2024-04-07T15:02:19.555Z,31.73
2024-04-07T15:04:47.884Z,31.42
2024-04-07T15:07:16.785Z,31.42
2024-04-07T15:09:44.943Z,31.20
2024-04-07T15:12:13.323Z,31.17
2024-04-07T15:14:42.218Z,31.07
2024-04-07T15:17:12.070Z,31.46
2024-04-07T15:19:40.539Z,31.87
2024-04-07T15:22:08.908Z,31.94
2024-04-07T15:24:37.229Z,31.40
2024-04-07T15:27:06.153Z,31.40
2024-04-07T15:29:34.528Z,31.49
2024-04-07T15:32:03.225Z,32.01
2024-04-07T15:34:31.848Z,32.61
2024-04-07T15:37:00.096Z,32.84
2024-04-07T15:39:29.081Z,33.40
2024-04-07T15:42:02.089Z,33.71
2024-04-07T15:44:31.792Z,34.14
2024-04-07T15:47:00.538Z,34.10
2024-04-07T15:49:29.462Z,34.33
2024-04-07T15:51:58.841Z,34.48
2024-04-07T15:54:27.009Z,35.05
2024-04-07T15:56:56.009Z,35.50
2024-04-07T15:59:24.818Z,35.36
2024-04-07T16:01:53.273Z,35.53
2024-04-07T16:04:22.608Z,35.97
2024-04-07T16:06:52.822Z,35.71
2024-04-07T16:09:21.991Z,35.42
2024-04-07T16:11:50.473Z,35.21
2024-04-07T16:14:18.864Z,35.53
2024-04-07T16:16:47.032Z,35.57
2024-04-07T16:19:15.199Z,35.80
2024-04-07T16:21:43.429Z,36.15
2024-04-07T16:24:11.693Z,36.45
2024-04-07T16:26:40.014Z,36.38
2024-04-07T16:29:08.400Z,36.50
2024-04-07T16:31:37.266Z,36.22
2024-04-07T16:34:06.562Z,36.30
2024-04-07T16:36:35.375Z,36.22
2024-04-07T16:39:04.914Z,36.99
2024-04-07T16:41:34.402Z,37.42
2024-04-07T16:44:03.290Z,36.55
2024-04-07T16:46:38.275Z,37.35
2024-04-07T16:49:10.019Z,37.84
2024-04-07T16:51:38.902Z,38.81
2024-04-07T16:54:07.413Z,38.90
2024-04-07T16:56:36.188Z,39.17
2024-04-07T16:59:04.878Z,39.61
2024-04-07T17:01:33.308Z,39.79
2024-04-07T17:04:01.936Z,40.97
2024-04-07T17:06:30.730Z,41.64
2024-04-07T17:08:59.160Z,42.33
2024-04-07T17:11:32.117Z,42.73
2024-04-07T17:14:05.088Z,43.44
2024-04-07T17:16:34.334Z,44.07
2024-04-07T17:19:06.391Z,43.93
2024-04-07T17:21:36.684Z,43.75
2024-04-07T17:24:06.575Z,44.18
2024-04-07T17:26:35.254Z,44.90
2024-04-07T17:29:03.556Z,45.49
2024-04-07T17:31:34.761Z,46.47
2024-04-07T17:34:04.274Z,47.00
2024-04-07T17:36:38.181Z,47.03
2024-04-07T17:39:06.739Z,47.31
2024-04-07T17:41:35.098Z,47.56
2024-04-07T17:44:03.841Z,47.30
2024-04-07T17:46:32.728Z,46.34
2024-04-07T17:49:01.814Z,45.74
2024-04-07T17:51:31.265Z,44.91
2024-04-07T17:54:03.004Z,45.19
2024-04-07T17:56:32.172Z,46.30
2024-04-07T17:59:00.752Z,46.31
2024-04-07T18:01:30.530Z,46.53
2024-04-07T18:04:00.309Z,46.40
2024-04-07T18:06:30.460Z,46.28
2024-04-07T18:09:00.977Z,46.44
2024-04-07T18:11:29.456Z,46.50
2024-04-07T18:13:58.215Z,46.06
2024-04-07T18:16:27.418Z,46.01
2024-04-07T18:18:56.292Z,45.85
2024-04-07T18:21:26.194Z,45.82
2024-04-07T18:23:55.597Z,46.09
2024-04-07T18:26:25.207Z,46.45
2024-04-07T18:28:56.377Z,47.04
2024-04-07T18:31:25.253Z,47.36
2024-04-07T18:33:54.775Z,47.52
2024-04-07T18:36:24.475Z,47.86
2024-04-07T18:38:54.393Z,48.02
2024-04-07T18:41:24.796Z,48.35
2024-04-07T18:43:54.242Z,48.48
2024-04-07T18:46:23.549Z,48.85
2024-04-07T18:48:53.155Z,48.92
2024-04-07T18:51:24.890Z,48.42
2024-04-07T18:53:54.231Z,48.58
2024-04-07T18:56:23.954Z,48.57
2024-04-07T18:58:53.906Z,48.58
2024-04-07T19:01:23.378Z,48.29
2024-04-07T19:03:52.108Z,48.19
2024-04-07T19:06:21.714Z,48.51
2024-04-07T19:08:51.925Z,48.39
2024-04-07T19:11:21.480Z,48.52
2024-04-07T19:13:54.079Z,48.85
2024-04-07T19:16:22.599Z,48.77
2024-04-07T19:18:50.859Z,48.85
2024-04-07T19:21:20.788Z,49.01
2024-04-07T19:23:50.256Z,49.15
2024-04-07T19:26:21.516Z,49.30
2024-04-07T19:28:50.607Z,49.37
2024-04-07T19:31:19.184Z,49.43
2024-04-07T19:33:48.124Z,49.39
2024-04-07T19:36:19.274Z,49.21
2024-04-07T19:38:48.174Z,49.42
2024-04-07T19:41:16.899Z,49.44
2024-04-07T19:43:45.116Z,49.65
2024-04-07T19:46:15.007Z,49.31
2024-04-07T19:48:43.795Z,49.14
2024-04-07T19:51:11.857Z,49.11
2024-04-07T19:53:40.786Z,49.51
2024-04-07T19:56:11.078Z,50.09
2024-04-07T19:58:39.941Z,50.49
2024-04-07T20:01:08.435Z,50.93
2024-04-07T20:03:38.060Z,51.42
2024-04-07T20:06:07.349Z,51.33
2024-04-07T20:08:37.078Z,51.66
2024-04-07T20:11:07.884Z,51.86
2024-04-07T20:13:36.446Z,51.95
2024-04-07T20:16:04.995Z,52.42
2024-04-07T20:18:33.234Z,52.88
2024-04-07T20:21:01.627Z,53.12
2024-04-07T20:23:30.909Z,53.12
2024-04-07T20:26:00.615Z,53.30
2024-04-07T20:28:29.410Z,53.35
2024-04-07T20:30:58.304Z,53.23
2024-04-07T20:33:27.091Z,53.26
2024-04-07T20:35:56.231Z,53.63
2024-04-07T20:38:28.022Z,54.33
2024-04-07T20:41:00.039Z,54.74
2024-04-07T20:43:29.504Z,54.86
2024-04-07T20:46:01.189Z,55.05
2024-04-07T20:48:33.242Z,55.31
2024-04-07T20:51:02.659Z,55.76
2024-04-07T20:53:32.623Z,56.09
2024-04-07T20:56:02.810Z,56.29
2024-04-07T20:58:32.740Z,56.65
2024-04-07T21:01:01.850Z,56.91
2024-04-07T21:03:31.319Z,57.06
2024-04-07T21:06:00.588Z,57.15
2024-04-07T21:08:35.064Z,57.38
2024-04-07T21:11:04.778Z,57.65
2024-04-07T21:13:33.940Z,57.82
2024-04-07T21:16:03.132Z,58.18
2024-04-07T21:18:32.218Z,58.45
2024-04-07T21:21:00.804Z,58.45
2024-04-07T21:23:31.091Z,58.59
2024-04-07T21:26:02.184Z,58.65
2024-04-07T21:28:33.009Z,58.63
2024-04-07T21:31:02.836Z,58.79
2024-04-07T21:33:32.866Z,58.77
2024-04-07T21:36:05.928Z,58.86
2024-04-07T21:38:35.191Z,58.72
2024-04-07T21:41:05.995Z,58.74
2024-04-07T21:43:36.048Z,58.72
2024-04-07T21:46:04.928Z,58.90
2024-04-07T21:48:33.522Z,59.07
2024-04-07T21:51:02.761Z,59.36
2024-04-07T21:53:32.970Z,59.65
2024-04-07T21:56:03.799Z,59.90
2024-04-07T21:58:55.838Z,59.96
2024-04-07T22:01:28.511Z,60.12
2024-04-07T22:03:57.805Z,60.25
2024-04-07T22:06:27.093Z,60.19
2024-04-07T22:08:58.042Z,60.27
2024-04-07T22:11:34.792Z,60.51
2024-04-07T22:14:06.360Z,60.57
2024-04-07T22:16:35.332Z,60.79
2024-04-07T22:19:04.124Z,60.88
2024-04-07T22:21:32.612Z,60.83
2024-04-07T22:24:03.060Z,60.89
2024-04-07T22:26:33.168Z,60.90
2024-04-07T22:29:02.263Z,61.21
2024-04-07T22:31:30.750Z,61.31
2024-04-07T22:34:02.021Z,61.50
2024-04-07T22:36:32.329Z,61.63
2024-04-07T22:39:00.759Z,61.67
2024-04-07T22:41:29.088Z,61.79
2024-04-07T22:43:59.328Z,61.83
2024-04-07T22:46:28.783Z,62.05
2024-04-07T22:48:57.934Z,61.95
2024-04-07T22:51:26.276Z,61.79
2024-04-07T22:53:55.093Z,62.01
2024-04-07T22:56:25.344Z,61.86
2024-04-07T22:58:54.411Z,61.84
2024-04-07T23:01:23.458Z,61.95
2024-04-07T23:03:55.001Z,61.92
2024-04-07T23:06:26.960Z,61.84
2024-04-07T23:08:57.577Z,61.74
2024-04-07T23:11:27.350Z,61.83
2024-04-07T23:13:57.535Z,61.82
2024-04-07T23:16:28.007Z,61.88
2024-04-07T23:18:58.240Z,61.81
2024-04-07T23:21:29.440Z,61.68
2024-04-07T23:23:59.070Z,61.75
2024-04-07T23:26:28.185Z,61.71
2024-04-07T23:28:58.997Z,61.69
2024-04-07T23:31:29.268Z,61.74
2024-04-07T23:34:00.667Z,61.67
2024-04-07T23:36:31.777Z,61.77
2024-04-07T23:39:01.422Z,61.78
2024-04-07T23:41:30.953Z,61.64
2024-04-07T23:44:00.948Z,61.79
2024-04-07T23:46:30.757Z,61.79
2024-04-07T23:49:02.020Z,61.85
2024-04-07T23:51:32.947Z,61.92
2024-04-07T23:54:02.264Z,61.90
2024-04-07T23:56:32.246Z,61.76
2024-04-07T23:59:03.376Z,61.81
